Time;durP1;ratioP1;P1;durP2;ratioP2;P2;SDS_P1;SDS_P2;PMS_P1;PMS_P2;Temp;Humidity;BMP_temperature;BMP_pressure;BME280_temperature;BME280_humidity;BME280_pressure;Samples;Min_cycle;Max_cycle;Signal;HPM_P1;HPM_P2
2022/08/28 00:02:11;;;;;;;0.10;0.10;;;19.40;99.90;;;;;;4890595;29;20045;-82
2022/08/28 00:04:39;;;;;;;0.10;0.10;;;21.00;99.90;;;;;;4890062;29;20197;-86
2022/08/28 00:07:07;;;;;;;0.10;0.10;;;19.70;99.90;;;;;;4906250;29;20323;-81
2022/08/28 00:09:38;;;;;;;5.40;4.38;;;19.30;99.90;;;;;;4899264;29;20519;-81
2022/08/28 00:12:12;;;;;;;3.65;3.35;;;22.80;99.90;;;;;;4881511;29;20036;-91
2022/08/28 00:14:41;;;;;;;0.08;0.08;;;18.90;99.90;;;;;;4876098;29;20511;-82
2022/08/28 00:17:10;;;;;;;0.00;0.00;;;19.00;99.90;;;;;;4894384;29;20092;-82
2022/08/28 00:19:42;;;;;;;0.10;0.10;;;19.00;99.90;;;;;;4861768;29;20029;-86
2022/08/28 00:22:11;;;;;;;0.10;0.10;;;18.90;99.90;;;;;;4876041;29;20030;-87
2022/08/28 00:24:41;;;;;;;0.00;0.00;;;19.00;99.90;;;;;;4876259;29;20056;-81
2022/08/28 00:29:52;;;;;;;0.10;0.10;;;19.30;99.90;;;;;;4889692;29;20059;-89
2022/08/28 00:32:20;;;;;;;0.10;0.10;;;;;;;;;;4870891;29;20041;-88
2022/08/28 00:34:48;;;;;;;0.35;0.35;;;19.10;99.90;;;;;;4887777;29;20040;-95
2022/08/28 00:37:14;;;;;;;0.10;0.10;;;18.80;99.90;;;;;;4887720;29;20565;-91
2022/08/28 00:39:43;;;;;;;0.08;0.08;;;18.90;99.90;;;;;;4875566;29;20076;-89
2022/08/28 00:42:16;;;;;;;0.10;0.10;;;19.20;99.90;;;;;;4875212;29;20068;-93
2022/08/28 00:44:49;;;;;;;0.00;0.00;;;19.10;99.90;;;;;;4865745;29;20044;-85
2022/08/28 00:47:15;;;;;;;;;;;18.70;99.90;;;;;;4884297;29;20041;-87
2022/08/28 00:49:54;;;;;;;1.20;1.20;;;18.30;99.90;;;;;;4875386;29;19914;-84
2022/08/28 00:52:30;;;;;;;0.52;0.52;;;18.20;99.90;;;;;;4893143;29;20032;-90
2022/08/28 00:55:10;;;;;;;1.33;1.27;;;16.50;99.90;;;;;;4874844;29;20024;-95
2022/08/28 00:57:47;;;;;;;0.10;0.10;;;18.40;99.90;;;;;;4872247;29;20032;-96
2022/08/28 01:00:35;;;;;;;0.10;0.10;;;18.00;99.90;;;;;;4871062;29;20041;-86
2022/08/28 01:03:02;;;;;;;0.10;0.10;;;18.10;99.90;;;;;;4871239;29;20381;-87
2022/08/28 01:05:28;;;;;;;0.10;0.10;;;18.50;99.90;;;;;;4871776;29;20041;-91
2022/08/28 01:08:03;;;;;;;0.10;0.10;;;17.90;99.90;;;;;;4887636;29;20677;-87
2022/08/28 01:10:34;;;;;;;0.00;0.00;;;17.90;99.90;;;;;;4870646;29;20163;-80
2022/08/28 01:13:08;;;;;;;0.00;0.00;;;17.70;99.90;;;;;;4889916;29;20684;-80
2022/08/28 01:15:41;;;;;;;0.10;0.10;;;17.80;99.90;;;;;;4870793;29;20016;-91
2022/08/28 01:18:14;;;;;;;0.00;0.00;;;17.70;99.90;;;;;;4886718;29;20044;-87
2022/08/28 01:21:25;;;;;;;0.00;0.00;;;17.60;99.90;;;;;;4874913;29;20404;-80
2022/08/28 01:23:56;;;;;;;0.10;0.10;;;17.60;99.90;;;;;;4815657;29;20285;-86
2022/08/28 01:26:33;;;;;;;0.08;0.08;;;17.40;99.90;;;;;;4833626;29;20298;-80
2022/08/28 01:29:02;;;;;;;0.20;0.20;;;17.30;99.90;;;;;;4817735;29;20042;-83
2022/08/28 01:31:31;;;;;;;0.10;0.10;;;17.60;99.90;;;;;;4819004;29;20052;-93
2022/08/28 01:34:02;;;;;;;0.10;0.10;;;17.90;99.90;;;;;;4818498;29;20098;-85
2022/08/28 01:36:30;;;;;;;0.00;0.00;;;15.00;99.90;;;;;;4814282;29;20022;-87
2022/08/28 01:39:16;;;;;;;0.10;0.10;;;18.10;99.90;;;;;;4830506;29;20100;-87
2022/08/28 01:41:47;;;;;;;0.43;0.43;;;18.00;99.90;;;;;;4813826;29;20026;-91
2022/08/28 01:44:23;;;;;;;0.10;0.10;;;18.50;99.90;;;;;;4814130;29;20061;-82
2022/08/28 01:46:55;;;;;;;0.10;0.10;;;18.90;99.90;;;;;;4831564;29;20118;-94
2022/08/28 01:49:36;;;;;;;0.00;0.00;;;17.10;99.90;;;;;;4816003;29;20848;-93
2022/08/28 01:52:10;;;;;;;0.10;0.10;;;21.50;99.90;;;;;;4883473;23;20407;-91
2022/08/28 01:54:36;;;;;;;3.05;2.85;;;21.60;99.90;;;;;;4955728;29;20039;-93
2022/08/28 01:57:05;;;;;;;0.00;0.00;;;19.90;99.90;;;;;;4928728;29;20031;-92
2022/08/28 01:59:34;;;;;;;0.10;0.10;;;19.80;99.90;;;;;;4929662;29;20019;-91
2022/08/28 02:02:05;;;;;;;0.10;0.10;;;20.40;99.90;;;;;;4946889;28;20031;-80
2022/08/28 02:04:31;;;;;;;0.10;0.10;;;;;;;;;;4928355;29;20140;-83
2022/08/28 02:07:06;;;;;;;0.10;0.10;;;20.20;99.90;;;;;;4948540;28;20108;-89
2022/08/28 02:09:38;;;;;;;0.00;0.00;;;20.40;99.90;;;;;;4938808;29;20074;-96
2022/08/28 02:12:05;;;;;;;0.68;0.68;;;19.70;99.90;;;;;;4938503;29;20511;-82
2022/08/28 02:14:37;;;;;;;;;;;19.90;99.90;;;;;;4963773;29;20039;-82
2022/08/28 02:17:06;;;;;;;0.10;0.10;;;21.30;99.90;;;;;;4961120;28;19910;-89
2022/08/28 02:19:32;;;;;;;0.10;0.10;;;19.80;99.90;;;;;;4951030;29;20044;-86
2022/08/28 02:22:07;;;;;;;0.05;0.05;;;19.10;99.90;;;;;;4950188;29;20046;-88
2022/08/28 02:24:36;;;;;;;0.00;0.00;;;18.50;99.90;;;;;;4941699;29;20039;-89
2022/08/28 02:27:12;;;;;;;0.10;0.10;;;20.20;99.90;;;;;;4937729;29;20067;-94
2022/08/28 02:29:41;;;;;;;0.00;0.00;;;;;;;;;;4940048;29;20130;-88
2022/08/28 02:32:10;;;;;;;0.63;0.47;;;19.70;99.90;;;;;;4935184;28;20471;-87
2022/08/28 02:34:42;;;;;;;0.20;0.20;;;19.40;99.90;;;;;;4924665;29;20041;-87
2022/08/28 02:37:12;;;;;;;0.10;0.10;;;18.00;99.90;;;;;;4938287;29;20214;-93
2022/08/28 02:39:39;;;;;;;0.30;0.30;;;20.00;99.90;;;;;;4938674;28;20062;-95
2022/08/28 02:42:09;;;;;;;0.10;0.10;;;19.90;99.90;;;;;;4932334;29;20039;-86
2022/08/28 02:44:41;;;;;;;0.00;0.00;;;16.10;99.90;;;;;;4929634;29;20660;-86
2022/08/28 02:47:08;;;;;;;0.20;0.20;;;20.50;99.90;;;;;;4947355;28;20031;-85
2022/08/28 02:49:41;;;;;;;0.10;0.10;;;20.10;99.90;;;;;;4948830;28;20051;-83
2022/08/28 02:52:12;;;;;;;0.10;0.10;;;;;;;;;;4946742;28;20063;-94
2022/08/28 02:54:38;;;;;;;0.10;0.10;;;19.50;99.90;;;;;;4931044;29;20082;-90
2022/08/28 02:57:11;;;;;;;0.00;0.00;;;19.90;99.90;;;;;;4942490;29;20028;-81
2022/08/28 02:59:42;;;;;;;0.10;0.10;;;20.10;99.90;;;;;;4941285;29;20219;-85
2022/08/28 03:02:19;;;;;;;0.00;0.00;;;21.10;99.90;;;;;;4953855;28;20054;-86
2022/08/28 03:05:04;;;;;;;0.10;0.10;;;23.90;99.90;;;;;;4941978;28;20027;-88
2022/08/28 03:07:35;;;;;;;0.52;0.52;;;20.70;99.90;;;;;;4932812;29;20042;-92
2022/08/28 03:10:01;;;;;;;0.22;0.22;;;20.40;99.90;;;;;;4931200;29;20537;-86
2022/08/28 03:12:27;;;;;;;0.10;0.10;;;19.50;99.90;;;;;;4928840;29;20031;-83
2022/08/28 03:14:58;;;;;;;0.00;0.00;;;20.90;99.90;;;;;;4928600;29;20043;-94
2022/08/28 03:17:27;;;;;;;0.10;0.10;;;21.00;99.90;;;;;;4929260;29;20566;-84
2022/08/28 03:19:55;;;;;;;0.43;0.43;;;20.30;99.90;;;;;;4928175;29;20517;-80
2022/08/28 03:25:16;;;;;;;0.10;0.10;;;21.20;99.90;;;;;;4924622;29;20167;-85
2022/08/28 03:27:44;;;;;;;0.10;0.10;;;20.10;99.90;;;;;;4924962;29;20028;-91
2022/08/28 03:30:14;;;;;;;0.03;0.03;;;20.20;99.90;;;;;;4906626;29;20040;-96
2022/08/28 03:32:54;;;;;;;0.10;0.10;;;20.50;99.90;;;;;;4907715;29;20183;-95
2022/08/28 03:35:28;;;;;;;0.00;0.00;;;20.20;99.90;;;;;;4908542;29;20055;-88
2022/08/28 03:37:57;;;;;;;0.10;0.10;;;20.20;99.90;;;;;;4907878;29;20036;-94
2022/08/28 03:40:29;;;;;;;0.10;0.10;;;20.00;99.90;;;;;;4906766;29;20032;-89
2022/08/28 03:42:55;;;;;;;0.93;0.57;;;20.00;99.90;;;;;;4909732;29;20531;-79
2022/08/28 03:45:27;;;;;;;0.10;0.10;;;18.90;99.90;;;;;;4929013;29;20031;-88
2022/08/28 03:47:59;;;;;;;0.10;0.10;;;19.20;99.90;;;;;;4934896;29;20040;-91
2022/08/28 03:50:30;;;;;;;0.10;0.10;;;19.10;99.90;;;;;;4909977;29;20470;-95
2022/08/28 03:53:05;;;;;;;0.10;0.10;;;19.20;99.90;;;;;;4918165;29;20071;-86
2022/08/28 03:55:33;;;;;;;0.00;0.00;;;18.30;99.90;;;;;;4936749;29;20023;-87
2022/08/28 03:58:05;;;;;;;0.00;0.00;;;19.40;99.90;;;;;;4957780;29;20187;-84
2022/08/28 04:00:36;;;;;;;0.10;0.10;;;19.20;99.90;;;;;;4940890;29;20529;-93
2022/08/28 04:03:11;;;;;;;0.10;0.10;;;19.70;99.90;;;;;;4943277;29;20066;-86
2022/08/28 04:05:41;;;;;;;0.10;0.10;;;20.00;99.90;;;;;;4933344;28;20023;-94
2022/08/28 04:08:07;;;;;;;0.10;0.10;;;;;;;;;;4930857;28;20027;-89
2022/08/28 04:10:46;;;;;;;0.10;0.10;;;20.20;99.90;;;;;;4927929;29;20028;-94
2022/08/28 04:13:16;;;;;;;0.10;0.10;;;20.50;99.90;;;;;;4928620;29;20027;-91
2022/08/28 04:15:45;;;;;;;0.10;0.10;;;20.70;99.90;;;;;;4927829;29;20035;-88
2022/08/28 04:18:12;;;;;;;0.03;0.03;;;20.70;99.90;;;;;;4927844;29;20031;-87
2022/08/28 04:20:41;;;;;;;0.00;0.00;;;21.00;99.90;;;;;;4928789;28;20322;-87
2022/08/28 04:23:12;;;;;;;0.10;0.10;;;20.90;99.90;;;;;;4933391;29;20039;-91
2022/08/28 04:25:42;;;;;;;0.10;0.10;;;21.10;99.90;;;;;;4935448;29;20034;-79
2022/08/28 04:28:13;;;;;;;0.10;0.10;;;21.70;99.90;;;;;;4937057;29;20057;-93
2022/08/28 04:30:42;;;;;;;0.08;0.08;;;21.20;99.90;;;;;;4929608;29;20538;-89
2022/08/28 04:33:11;;;;;;;0.00;0.00;;;;;;;;;;4929777;28;20413;-90
2022/08/28 04:35:40;;;;;;;1.92;1.58;;;20.80;99.90;;;;;;4941276;29;20027;-85
2022/08/28 04:38:06;;;;;;;0.00;0.00;;;18.60;99.90;;;;;;4944125;29;20035;-91
2022/08/28 04:40:35;;;;;;;0.00;0.00;;;20.80;99.90;;;;;;4939079;29;20023;-91
2022/08/28 04:45:47;;;;;;;0.00;0.00;;;;;;;;;;4947019;28;20035;-84
2022/08/28 04:48:13;;;;;;;2.08;1.88;;;21.00;99.90;;;;;;4949102;28;20035;-85
2022/08/28 04:50:50;;;;;;;0.00;0.00;;;22.90;99.90;;;;;;4935188;29;20083;-91
2022/08/28 04:53:19;;;;;;;0.10;0.10;;;20.20;99.90;;;;;;4923851;29;20051;-92
2022/08/28 04:55:47;;;;;;;0.45;0.45;;;20.80;99.90;;;;;;4938166;29;20102;-93
2022/08/28 04:58:26;;;;;;;0.10;0.10;;;20.40;99.90;;;;;;4932899;28;20031;-89
2022/08/28 05:00:56;;;;;;;0.20;0.20;;;20.40;99.90;;;;;;4935775;29;20406;-77
2022/08/28 05:03:25;;;;;;;0.10;0.10;;;20.80;99.90;;;;;;4962757;28;20103;-92
2022/08/28 05:05:53;;;;;;;0.47;0.47;;;20.80;99.90;;;;;;4939448;29;20398;-81
2022/08/28 05:08:27;;;;;;;0.10;0.10;;;21.30;99.90;;;;;;4945391;23;20409;-85
2022/08/28 05:10:56;;;;;;;0.00;0.00;;;21.00;99.90;;;;;;4903996;29;20083;-78
2022/08/28 05:13:28;;;;;;;0.00;0.00;;;24.30;99.90;;;;;;4930486;29;20028;-78
2022/08/28 05:16:05;;;;;;;0.10;0.10;;;21.50;99.90;;;;;;4927231;29;20052;-78
2022/08/28 05:19:10;;;;;;;0.10;0.10;;;20.50;99.90;;;;;;4915273;29;20059;-79
2022/08/28 05:22:03;;;;;;;0.30;0.30;;;20.50;99.90;;;;;;4911546;29;20032;-78
2022/08/28 05:24:36;;;;;;;0.10;0.10;;;20.30;99.90;;;;;;4900744;29;20107;-78
2022/08/28 05:27:14;;;;;;;0.10;0.10;;;17.50;99.90;;;;;;4904655;29;20076;-78
2022/08/28 05:29:43;;;;;;;0.20;0.20;;;20.90;99.90;;;;;;4870226;29;20265;-78
2022/08/28 05:32:12;;;;;;;0.10;0.10;;;;;;;;;;4904148;29;20127;-78
2022/08/28 05:34:50;;;;;;;0.10;0.10;;;20.70;99.90;;;;;;4906985;29;20028;-79
2022/08/28 05:37:16;;;;;;;0.10;0.10;;;;;;;;;;4900412;29;20538;-78
2022/08/28 05:39:47;;;;;;;0.10;0.10;;;;;;;;;;4904560;29;20028;-79
2022/08/28 05:42:40;;;;;;;0.00;0.00;;;21.00;99.90;;;;;;4926225;29;20028;-78
2022/08/28 05:45:21;;;;;;;0.10;0.10;;;20.30;99.90;;;;;;4905785;29;20029;-79
2022/08/28 05:48:16;;;;;;;0.10;0.10;;;21.40;99.90;;;;;;4923617;29;20060;-79
2022/08/28 05:51:00;;;;;;;0.10;0.10;;;;;;;;;;4899795;29;20040;-79
2022/08/28 05:53:27;;;;;;;0.10;0.10;;;;;;;;;;4918727;29;20040;-79
2022/08/28 05:55:53;;;;;;;0.10;0.10;;;21.20;99.90;;;;;;4908134;29;20036;-80
2022/08/28 05:58:30;;;;;;;0.10;0.10;;;21.40;99.90;;;;;;4909103;29;20478;-80
2022/08/28 06:01:17;;;;;;;0.20;0.20;;;20.90;99.90;;;;;;4910475;29;20102;-78
2022/08/28 06:07:01;;;;;;;0.00;0.00;;;19.70;99.90;;;;;;4885164;29;20060;-78
2022/08/28 06:09:33;;;;;;;0.20;0.20;;;19.70;99.90;;;;;;4879124;29;20495;-78
2022/08/28 06:12:22;;;;;;;0.10;0.10;;;19.60;99.90;;;;;;4895101;29;20037;-89
2022/08/28 06:15:05;;;;;;;0.05;0.05;;;20.00;99.90;;;;;;4885257;29;20028;-78
2022/08/28 06:17:45;;;;;;;0.10;0.10;;;20.30;99.90;;;;;;4871365;29;20324;-78
2022/08/28 06:20:25;;;;;;;0.10;0.10;;;22.00;99.90;;;;;;4824334;29;20036;-78
2022/08/28 06:25:50;;;;;;;1.70;1.60;;;20.80;99.90;;;;;;3189306;27;20238;-78
2022/08/28 06:28:30;;;;;;;0.00;0.00;;;21.00;99.90;;;;;;4887648;29;20056;-78
2022/08/28 06:31:17;;;;;;;0.10;0.10;;;21.20;99.90;;;;;;4898440;29;20031;-79
2022/08/28 06:33:45;;;;;;;0.40;0.40;;;21.20;99.90;;;;;;4911738;29;20028;-79
2022/08/28 06:36:13;;;;;;;4.75;4.40;;;21.50;99.90;;;;;;4884079;29;20036;-78
2022/08/28 06:39:12;;;;;;;0.10;0.10;;;21.70;99.90;;;;;;4881696;29;20096;-79
2022/08/28 06:42:07;;;;;;;0.30;0.30;;;21.50;99.90;;;;;;4880079;29;20088;-79
2022/08/28 06:44:50;;;;;;;0.00;0.00;;;22.10;99.90;;;;;;4916763;29;20259;-79
2022/08/28 06:47:44;;;;;;;0.23;0.23;;;22.40;99.90;;;;;;4894682;29;20032;-79
2022/08/28 06:50:23;;;;;;;0.10;0.10;;;22.40;99.90;;;;;;4902523;29;20061;-80
2022/08/28 06:53:24;;;;;;;0.10;0.10;;;22.20;99.90;;;;;;4926945;23;20484;-79
2022/08/28 06:59:21;;;;;;;0.10;0.10;;;24.20;99.90;;;;;;4920492;29;20032;-78
2022/08/28 07:01:54;;;;;;;0.05;0.05;;;22.50;99.90;;;;;;4882834;29;20043;-79
2022/08/28 07:04:24;;;;;;;0.10;0.10;;;22.60;99.90;;;;;;4881344;29;20036;-79
2022/08/28 07:07:07;;;;;;;0.10;0.10;;;23.30;99.90;;;;;;4892597;29;20108;-79
2022/08/28 07:09:48;;;;;;;0.10;0.10;;;20.30;99.90;;;;;;4886951;29;20033;-78
2022/08/28 07:12:31;;;;;;;2.97;1.65;;;22.50;99.90;;;;;;4844891;29;20053;-78
2022/08/28 07:15:09;;;;;;;0.22;0.22;;;22.60;99.90;;;;;;4840788;29;20069;-79
2022/08/28 07:18:03;;;;;;;1.88;1.75;;;22.60;99.90;;;;;;4829136;29;20108;-77
2022/08/28 07:20:40;;;;;;;0.10;0.10;;;23.20;99.90;;;;;;4847467;29;20050;-87
2022/08/28 07:23:14;;;;;;;0.65;0.65;;;23.10;99.90;;;;;;4828090;29;20045;-80
2022/08/28 07:25:44;;;;;;;0.10;0.10;;;22.90;99.90;;;;;;4824508;29;20033;-79
2022/08/28 07:28:17;;;;;;;0.03;0.03;;;23.00;99.90;;;;;;4825649;29;20140;-80
2022/08/28 07:31:17;;;;;;;0.10;0.10;;;22.90;99.90;;;;;;4834597;29;20022;-79
2022/08/28 07:33:46;;;;;;;0.70;0.70;;;22.90;99.90;;;;;;4844475;29;20313;-88
2022/08/28 07:36:15;;;;;;;0.10;0.10;;;22.80;99.90;;;;;;4850892;29;20642;-78
2022/08/28 07:38:47;;;;;;;2.00;1.90;;;22.90;99.90;;;;;;4885577;23;20056;-81
2022/08/28 07:41:29;;;;;;;5.30;5.10;;;23.40;99.90;;;;;;4866954;29;20274;-80
2022/08/28 07:46:58;;;;;;;0.10;0.10;;;23.30;99.90;;;;;;4872457;29;20032;-78
2022/08/28 07:49:27;;;;;;;1.10;1.02;;;23.30;99.90;;;;;;4849572;29;20096;-84
2022/08/28 07:51:59;;;;;;;1.05;1.02;;;23.30;99.90;;;;;;4888316;23;20064;-79
2022/08/28 07:54:25;;;;;;;0.08;0.08;;;24.60;99.90;;;;;;4900841;29;20045;-84
2022/08/28 07:56:51;;;;;;;0.17;0.17;;;23.40;99.90;;;;;;4897542;29;20081;-85
2022/08/28 07:59:19;;;;;;;0.00;0.00;;;23.50;99.90;;;;;;4896760;29;20044;-80
2022/08/28 08:01:49;;;;;;;0.00;0.00;;;23.80;99.90;;;;;;4871419;29;20033;-83
2022/08/28 08:04:24;;;;;;;0.20;0.20;;;24.00;99.90;;;;;;4875744;29;20151;-82
2022/08/28 08:07:04;;;;;;;0.45;0.43;;;24.00;99.90;;;;;;4869044;29;20025;-81
2022/08/28 08:09:38;;;;;;;0.10;0.10;;;24.00;99.90;;;;;;4873387;29;20048;-89
2022/08/28 08:12:11;;;;;;;0.00;0.00;;;24.50;99.90;;;;;;4908670;23;20060;-79
2022/08/28 08:14:41;;;;;;;0.00;0.00;;;24.60;99.90;;;;;;4885483;29;20116;-81
2022/08/28 08:17:09;;;;;;;0.20;0.20;;;24.40;99.90;;;;;;4923979;29;20051;-79
2022/08/28 08:19:40;;;;;;;0.00;0.00;;;24.30;99.90;;;;;;4915425;29;20131;-79
2022/08/28 08:22:11;;;;;;;1.05;0.95;;;24.60;99.90;;;;;;4896154;29;20032;-79
2022/08/28 08:24:48;;;;;;;1.00;0.57;;;24.50;98.60;;;;;;4921045;29;20036;-79
2022/08/28 08:27:24;;;;;;;0.00;0.00;;;24.40;99.00;;;;;;4894673;29;20538;-79
2022/08/28 08:30:10;;;;;;;0.35;0.30;;;24.60;99.40;;;;;;4928945;29;20024;-79
2022/08/28 08:32:40;;;;;;;0.10;0.10;;;25.20;98.70;;;;;;4886125;29;20123;-80
2022/08/28 08:35:11;;;;;;;0.00;0.00;;;25.10;98.80;;;;;;4871039;29;20103;-80
2022/08/28 08:37:41;;;;;;;0.10;0.10;;;22.80;97.60;;;;;;4907179;29;20024;-80
2022/08/28 08:40:18;;;;;;;0.00;0.00;;;25.10;98.10;;;;;;4895265;29;20246;-79
2022/08/28 08:43:39;;;;;;;;;;;;;;;;;;;;;
2022/08/28 08:46:16;;;;;;;0.88;0.80;;;25.60;96.70;;;;;;5326461;23;20139;-81
2022/08/28 08:48:51;;;;;;;0.00;0.00;;;23.10;96.20;;;;;;4898232;29;20040;-80
2022/08/28 08:52:14;;;;;;;0.15;0.15;;;25.70;96.80;;;;;;4906558;29;20024;-80
2022/08/28 08:55:01;;;;;;;0.10;0.10;;;23.50;95.80;;;;;;4883319;29;20362;-80
2022/08/28 08:57:31;;;;;;;0.00;0.00;;;26.20;96.30;;;;;;4894202;29;20069;-83
2022/08/28 09:00:10;;;;;;;0.00;0.00;;;26.10;96.60;;;;;;4947744;23;20422;-83
2022/08/28 09:03:21;;;;;;;0.30;0.30;;;28.20;96.30;;;;;;4898696;29;20043;-80
2022/08/28 09:06:01;;;;;;;0.10;0.10;;;24.10;95.30;;;;;;4913590;29;20447;-80
2022/08/28 09:08:51;;;;;;;0.22;0.22;;;28.30;96.50;;;;;;4897086;29;20036;-80
2022/08/28 09:12:00;;;;;;;0.40;0.40;;;27.10;94.90;;;;;;4963071;23;20032;-80
2022/08/28 09:15:08;;;;;;;0.00;0.00;;;27.90;95.20;;;;;;4964446;29;20058;-83
2022/08/28 09:17:44;;;;;;;0.40;0.40;;;26.70;94.50;;;;;;4936606;29;20086;-80
2022/08/28 09:20:58;;;;;;;4.22;1.15;;;27.30;94.60;;;;;;4938732;29;20059;-79
2022/08/28 09:23:26;;;;;;;1.02;0.85;;;27.40;95.20;;;;;;4875301;29;20037;-79
2022/08/28 09:26:40;;;;;;;0.10;0.10;;;26.90;95.00;;;;;;4858706;29;20032;-79
2022/08/28 09:29:52;;;;;;;0.10;0.10;;;25.10;94.50;;;;;;4862647;29;20602;-80
2022/08/28 09:33:01;;;;;;;0.00;0.00;;;27.20;95.10;;;;;;4845247;29;20030;-79
2022/08/28 09:35:47;;;;;;;0.00;0.00;;;26.60;95.70;;;;;;4858970;29;20351;-79
2022/08/28 09:38:29;;;;;;;0.22;0.22;;;25.00;96.90;;;;;;4859177;29;20096;-80
2022/08/28 09:44:24;;;;;;;0.08;0.08;;;26.80;96.50;;;;;;4892282;29;20050;-81
2022/08/28 09:47:40;;;;;;;0.08;0.08;;;26.40;96.70;;;;;;4866196;29;20040;-80
2022/08/28 09:50:35;;;;;;;3.78;3.50;;;27.10;97.40;;;;;;4871557;29;20045;-79
2022/08/28 09:53:15;;;;;;;0.45;0.40;;;26.40;96.70;;;;;;4871286;29;20060;-80
2022/08/28 09:56:06;;;;;;;0.55;0.55;;;26.50;96.80;;;;;;4905836;23;20040;-78
2022/08/28 09:59:17;;;;;;;0.45;0.45;;;26.70;97.00;;;;;;4920918;29;20032;-79
2022/08/28 10:01:56;;;;;;;0.38;0.35;;;26.60;96.80;;;;;;4835441;29;20071;-80
2022/08/28 10:05:05;;;;;;;2.97;1.65;;;27.00;97.20;;;;;;4837465;29;20046;-80
2022/08/28 10:07:45;;;;;;;0.35;0.30;;;27.30;97.20;;;;;;4780295;30;20766;-80
2022/08/28 10:10:30;;;;;;;0.75;0.32;;;27.00;95.60;;;;;;4776046;30;20039;-80
2022/08/28 10:13:39;;;;;;;2.08;0.85;;;27.00;95.30;;;;;;4788106;30;20039;-80
2022/08/28 10:16:41;;;;;;;0.10;0.10;;;26.90;94.80;;;;;;4800521;30;20074;-79
2022/08/28 10:19:46;;;;;;;0.82;0.80;;;25.10;94.00;;;;;;4782053;29;20047;-79
2022/08/28 10:23:05;;;;;;;0.50;0.50;;;27.30;93.90;;;;;;4802485;30;20031;-79
2022/08/28 10:26:09;;;;;;;0.88;0.88;;;27.20;93.90;;;;;;4790775;29;20045;-80
2022/08/28 10:29:09;;;;;;;0.77;0.73;;;26.50;95.10;;;;;;4777278;30;20110;-79
2022/08/28 10:32:32;;;;;;;5.28;2.30;;;24.90;94.90;;;;;;4772409;30;20058;-79
2022/08/28 10:35:35;;;;;;;0.00;0.00;;;28.30;96.00;;;;;;4724590;30;20045;-80
2022/08/28 10:38:55;;;;;;;0.00;0.00;;;27.10;95.80;;;;;;4828099;23;20051;-79
2022/08/28 10:44:45;;;;;;;0.52;0.50;;;28.10;94.60;;;;;;4944570;29;20039;-79
2022/08/28 10:47:40;;;;;;;1.17;1.08;;;28.70;93.30;;;;;;4946804;29;20063;-79
2022/08/28 10:50:41;;;;;;;1.00;0.85;;;28.80;92.90;;;;;;4884027;29;20127;-79
2022/08/28 10:53:18;;;;;;;0.10;0.10;;;29.00;92.10;;;;;;4890997;29;20089;-79
2022/08/28 10:56:42;;;;;;;0.25;0.25;;;30.00;92.50;;;;;;4873504;29;20383;-79
2022/08/28 10:59:18;;;;;;;0.35;0.10;;;30.00;91.50;;;;;;4844305;29;20052;-79
2022/08/28 11:02:34;;;;;;;0.57;0.35;;;30.50;90.60;;;;;;4821133;29;20149;-80
2022/08/28 11:05:07;;;;;;;0.32;0.32;;;26.70;87.60;;;;;;4788568;29;20039;-80
2022/08/28 11:07:56;;;;;;;0.30;0.30;;;30.00;89.50;;;;;;4785977;29;20134;-79
2022/08/28 11:10:54;;;;;;;0.10;0.10;;;28.30;88.30;;;;;;4790537;30;20138;-79
2022/08/28 11:14:24;;;;;;;0.10;0.10;;;30.30;90.50;;;;;;4775120;30;20031;-79
2022/08/28 11:17:21;;;;;;;0.25;0.25;;;30.50;87.70;;;;;;4794710;30;20043;-77
2022/08/28 11:20:23;;;;;;;0.35;0.30;;;30.70;86.00;;;;;;4751831;30;20615;-77
2022/08/28 11:23:28;;;;;;;1.38;1.17;;;30.90;84.50;;;;;;4778896;30;20231;-80
2022/08/28 11:26:20;;;;;;;0.43;0.30;;;31.40;84.60;;;;;;4772724;30;20032;-79
2022/08/28 11:28:56;;;;;;;0.38;0.22;;;31.50;83.30;;;;;;4748710;30;20043;-80
2022/08/28 11:31:53;;;;;;;0.88;0.82;;;31.20;80.40;;;;;;4766506;30;20125;-78
2022/08/28 11:34:59;;;;;;;0.10;0.10;;;31.90;82.50;;;;;;4760157;29;20078;-78
2022/08/28 11:37:43;;;;;;;0.00;0.00;;;32.00;79.20;;;;;;4781580;29;20044;-89
2022/08/28 11:40:41;;;;;;;0.00;0.00;;;32.00;77.70;;;;;;4776014;30;20035;-84
2022/08/28 11:43:33;;;;;;;0.68;0.68;;;32.60;79.00;;;;;;4815577;29;20046;-83
2022/08/28 11:46:12;;;;;;;0.00;0.00;;;33.00;74.80;;;;;;4840320;29;20453;-77
2022/08/28 11:48:46;;;;;;;0.93;0.93;;;33.10;73.10;;;;;;4827637;29;20067;-76
2022/08/28 11:51:42;;;;;;;0.10;0.10;;;33.10;71.60;;;;;;4852226;29;20081;-76
2022/08/28 11:54:58;;;;;;;0.10;0.10;;;33.40;70.80;;;;;;4794791;30;20049;-77
2022/08/28 11:57:42;;;;;;;0.10;0.10;;;33.50;69.60;;;;;;4726485;30;20045;-76
2022/08/28 12:00:56;;;;;;;0.20;0.20;;;33.70;69.60;;;;;;4742820;30;20048;-76
2022/08/28 12:03:56;;;;;;;0.17;0.17;;;33.50;65.00;;;;;;4695952;30;20113;-77
2022/08/28 12:06:50;;;;;;;0.98;0.47;;;33.30;65.80;;;;;;4686258;30;20014;-76
2022/08/28 12:09:39;;;;;;;0.05;0.05;;;31.20;65.60;;;;;;4679678;30;20060;-76
2022/08/28 12:12:27;;;;;;;0.63;0.40;;;32.10;65.70;;;;;;4678302;30;20117;-76
2022/08/28 12:15:07;;;;;;;0.63;0.63;;;31.70;67.30;;;;;;4716896;30;20021;-76
2022/08/28 12:17:43;;;;;;;0.00;0.00;;;32.10;69.60;;;;;;4712267;30;20694;-76
2022/08/28 12:20:24;;;;;;;0.10;0.10;;;30.70;70.00;;;;;;4719853;30;20213;-76
2022/08/28 12:23:46;;;;;;;0.95;0.57;;;30.60;71.00;;;;;;4718244;30;20048;-76
2022/08/28 12:26:41;;;;;;;0.10;0.10;;;30.40;71.10;;;;;;4650207;30;20086;-77
2022/08/28 12:29:26;;;;;;;0.00;0.00;;;30.40;71.70;;;;;;4662399;30;20046;-77
2022/08/28 12:32:19;;;;;;;1.02;0.57;;;30.20;72.40;;;;;;4718779;29;20023;-77
2022/08/28 12:35:13;;;;;;;0.75;0.65;;;29.70;73.20;;;;;;4755885;29;20746;-77
2022/08/28 12:38:00;;;;;;;0.00;0.00;;;29.30;74.00;;;;;;4745524;30;20730;-77
2022/08/28 12:40:39;;;;;;;0.15;0.15;;;29.40;74.40;;;;;;4776553;29;20144;-77
2022/08/28 12:43:38;;;;;;;0.73;0.70;;;29.10;74.50;;;;;;4784858;30;20118;-77
2022/08/28 12:46:15;;;;;;;0.10;0.10;;;29.40;74.10;;;;;;4795726;30;20104;-77
2022/08/28 12:48:58;;;;;;;0.20;0.20;;;29.40;74.20;;;;;;4784058;29;20086;-77
2022/08/28 12:51:40;;;;;;;0.00;0.00;;;29.20;75.00;;;;;;4781608;29;20035;-77
2022/08/28 12:54:07;;;;;;;0.93;0.77;;;29.30;75.10;;;;;;4794741;29;20184;-80
2022/08/28 12:56:38;;;;;;;0.10;0.10;;;29.20;75.00;;;;;;4785110;29;20083;-78
2022/08/28 12:59:48;;;;;;;0.05;0.05;;;29.00;79.20;;;;;;4774946;30;20039;-79
2022/08/28 13:02:20;;;;;;;0.03;0.03;;;28.80;79.60;;;;;;4826953;29;20089;-79
2022/08/28 13:05:02;;;;;;;0.20;0.20;;;28.60;82.10;;;;;;4835878;29;20045;-78
2022/08/28 13:07:39;;;;;;;1.02;0.98;;;28.60;80.50;;;;;;4848234;29;20454;-79
2022/08/28 13:10:30;;;;;;;0.40;0.40;;;28.40;81.80;;;;;;4856207;29;20033;-77
2022/08/28 13:13:05;;;;;;;0.40;0.40;;;28.40;81.90;;;;;;4920446;29;20120;-78
2022/08/28 13:16:00;;;;;;;0.55;0.35;;;26.60;81.70;;;;;;4920601;29;20702;-76
2022/08/28 13:19:06;;;;;;;0.00;0.00;;;28.00;82.70;;;;;;4920592;29;20314;-77
2022/08/28 13:21:46;;;;;;;0.00;0.00;;;28.40;82.70;;;;;;4900248;29;20028;-77
2022/08/28 13:24:26;;;;;;;0.00;0.00;;;29.20;82.90;;;;;;4901319;29;20035;-77
2022/08/28 13:27:20;;;;;;;0.20;0.20;;;25.40;83.10;;;;;;4903325;29;20024;-76
2022/08/28 13:30:11;;;;;;;0.30;0.30;;;28.30;86.20;;;;;;4897175;29;20056;-78
2022/08/28 13:32:39;;;;;;;0.17;0.17;;;28.10;86.90;;;;;;4889807;29;20038;-79
2022/08/28 13:35:17;;;;;;;0.00;0.00;;;28.10;87.30;;;;;;4894947;29;20044;-96
2022/08/28 13:37:46;;;;;;;0.00;0.00;;;27.90;87.00;;;;;;4915022;29;20036;-78
2022/08/28 13:40:14;;;;;;;0.32;0.32;;;27.90;85.80;;;;;;4932574;29;20668;-78
2022/08/28 13:42:41;;;;;;;0.08;0.08;;;27.80;87.00;;;;;;4916142;29;20086;-91
2022/08/28 13:45:08;;;;;;;0.50;0.40;;;27.70;86.70;;;;;;4941855;29;20063;-78
2022/08/28 13:47:43;;;;;;;0.00;0.00;;;27.50;87.20;;;;;;4943562;29;20099;-92
2022/08/28 13:50:09;;;;;;;0.20;0.20;;;27.70;89.40;;;;;;4933871;29;20026;-78
2022/08/28 13:52:36;;;;;;;0.00;0.00;;;27.60;88.50;;;;;;4921338;29;20091;-77
2022/08/28 13:55:02;;;;;;;0.73;0.65;;;27.60;87.60;;;;;;4929236;29;20058;-79
2022/08/28 13:57:28;;;;;;;0.00;0.00;;;27.30;87.50;;;;;;4935092;29;20059;-79
2022/08/28 13:59:54;;;;;;;1.48;1.38;;;27.20;89.60;;;;;;4916055;29;20047;-90
2022/08/28 14:05:06;;;;;;;0.00;0.00;;;26.90;89.70;;;;;;4925096;29;20059;-79
2022/08/28 14:07:32;;;;;;;0.20;0.20;;;26.80;90.10;;;;;;4941175;29;20020;-79
2022/08/28 14:09:59;;;;;;;0.15;0.15;;;26.70;90.70;;;;;;4927845;29;20050;-81
2022/08/28 14:12:26;;;;;;;0.00;0.00;;;26.50;90.60;;;;;;4922998;29;20028;-78
2022/08/28 14:14:52;;;;;;;0.00;0.00;;;26.00;91.10;;;;;;4935664;29;20046;-88
2022/08/28 14:17:21;;;;;;;0.08;0.08;;;26.30;91.70;;;;;;4918280;29;20064;-80
2022/08/28 14:19:48;;;;;;;0.20;0.20;;;26.30;91.70;;;;;;4920401;29;20035;-89
2022/08/28 14:22:16;;;;;;;0.43;0.43;;;26.00;92.20;;;;;;4934305;29;20549;-79
2022/08/28 14:24:42;;;;;;;0.47;0.38;;;23.60;91.80;;;;;;4914143;29;20075;-93
2022/08/28 14:27:08;;;;;;;0.00;0.00;;;25.90;92.60;;;;;;4913411;29;20101;-80